Time;durP1;ratioP1;P1;durP2;ratioP2;P2;SDS_P1;SDS_P2;PMS_P1;PMS_P2;Temp;Humidity;BMP_temperature;BMP_pressure;BME280_temperature;BME280_humidity;BME280_pressure;Samples;Min_cycle;Max_cycle;Signal;HPM_P1;HPM_P2
2021/01/23 00:01:53;;;;;;;19.37;11.03;;;6.00;99.90;;;;;;5032206;28;20293;-72
2021/01/23 00:04:19;;;;;;;19.37;12.07;;;6.10;99.90;;;;;;5028224;28;20660;-72
2021/01/23 00:06:46;;;;;;;20.40;12.03;;;6.00;99.90;;;;;;5032087;28;20206;-73
2021/01/23 00:09:13;;;;;;;19.13;11.33;;;6.00;99.90;;;;;;5030211;28;20227;-73
2021/01/23 00:11:39;;;;;;;18.77;11.30;;;6.00;99.90;;;;;;5023716;28;20257;-72
2021/01/23 00:14:06;;;;;;;20.70;11.50;;;6.00;99.90;;;;;;5022612;28;20217;-73
2021/01/23 00:16:32;;;;;;;20.97;12.43;;;6.00;99.90;;;;;;5028414;28;20202;-73
2021/01/23 00:18:59;;;;;;;19.17;11.50;;;6.00;99.90;;;;;;5032061;28;20203;-73
2021/01/23 00:21:25;;;;;;;22.57;12.17;;;5.90;99.90;;;;;;5031230;28;20207;-73
2021/01/23 00:23:52;;;;;;;22.47;12.20;;;5.90;99.90;;;;;;5027717;28;20236;-74
2021/01/23 00:26:19;;;;;;;20.67;12.00;;;5.90;99.90;;;;;;5028745;28;20290;-73
2021/01/23 00:28:46;;;;;;;21.13;12.73;;;5.90;99.90;;;;;;5025629;28;21062;-72
2021/01/23 00:31:13;;;;;;;21.00;11.97;;;5.80;99.90;;;;;;5027436;28;20213;-73
2021/01/23 00:33:40;;;;;;;22.57;12.80;;;5.80;99.90;;;;;;5027297;28;20216;-73
2021/01/23 00:36:06;;;;;;;19.20;11.10;;;5.80;99.90;;;;;;5023258;28;20305;-71
2021/01/23 00:38:33;;;;;;;21.03;12.13;;;5.80;99.90;;;;;;5020827;28;20568;-71
2021/01/23 00:40:59;;;;;;;23.07;13.27;;;5.80;99.90;;;;;;5022529;28;20755;-73
2021/01/23 00:43:26;;;;;;;21.63;12.07;;;5.80;99.90;;;;;;5030733;28;20210;-72
2021/01/23 00:45:53;;;;;;;21.33;12.03;;;5.80;99.90;;;;;;5029514;28;20215;-72
2021/01/23 00:48:19;;;;;;;20.47;12.20;;;5.80;99.90;;;;;;5034347;28;20238;-72
2021/01/23 00:50:46;;;;;;;17.43;11.40;;;5.80;99.90;;;;;;5032429;28;20207;-72
2021/01/23 00:53:12;;;;;;;18.40;11.83;;;5.80;99.90;;;;;;5034661;28;20620;-71
2021/01/23 00:55:39;;;;;;;19.37;11.50;;;5.80;99.90;;;;;;5028384;28;20623;-73
2021/01/23 00:58:05;;;;;;;21.20;12.13;;;5.80;99.90;;;;;;5030768;28;20202;-73
2021/01/23 01:00:32;;;;;;;20.27;13.40;;;5.80;99.90;;;;;;5031019;28;20235;-73
2021/01/23 01:02:59;;;;;;;22.60;12.63;;;5.80;99.90;;;;;;5028305;28;20210;-73
2021/01/23 01:05:25;;;;;;;23.27;12.73;;;5.80;99.90;;;;;;5027613;28;20255;-73
2021/01/23 01:07:51;;;;;;;23.27;12.33;;;5.80;99.90;;;;;;5029811;28;20741;-72
2021/01/23 01:10:18;;;;;;;20.40;12.97;;;5.80;99.90;;;;;;5030931;28;20742;-72
2021/01/23 01:12:44;;;;;;;23.67;14.27;;;5.80;99.90;;;;;;5032198;28;20234;-72
2021/01/23 01:15:11;;;;;;;23.90;14.00;;;5.80;99.90;;;;;;5029906;28;20211;-71
2021/01/23 01:17:40;;;;;;;24.50;14.47;;;5.80;99.90;;;;;;5031608;28;20564;-71
2021/01/23 01:20:07;;;;;;;22.30;13.63;;;5.80;99.90;;;;;;5025309;28;20213;-72
2021/01/23 01:22:34;;;;;;;23.83;13.87;;;5.70;99.90;;;;;;5026850;28;20213;-72
2021/01/23 01:25:00;;;;;;;27.40;15.77;;;5.70;99.90;;;;;;5028328;28;20628;-71
2021/01/23 01:27:26;;;;;;;22.30;13.73;;;5.60;99.90;;;;;;5027676;28;20216;-72
2021/01/23 01:29:53;;;;;;;24.50;14.93;;;5.60;99.90;;;;;;5031280;28;20211;-71
2021/01/23 01:32:19;;;;;;;25.90;14.60;;;5.50;99.90;;;;;;5029242;28;20209;-72
2021/01/23 01:34:46;;;;;;;27.77;16.33;;;5.50;99.90;;;;;;5026324;28;20213;-72
2021/01/23 01:37:13;;;;;;;26.63;16.63;;;5.50;99.90;;;;;;5033576;28;20207;-72
2021/01/23 01:39:39;;;;;;;25.70;15.90;;;5.40;99.90;;;;;;5029221;28;20630;-72
2021/01/23 01:42:06;;;;;;;28.47;16.83;;;5.30;99.90;;;;;;5034207;28;20644;-71
2021/01/23 01:44:33;;;;;;;29.23;17.07;;;5.30;99.90;;;;;;5031385;28;20256;-72
2021/01/23 01:47:00;;;;;;;27.47;16.30;;;5.20;99.90;;;;;;5031523;28;20209;-72
2021/01/23 01:49:27;;;;;;;27.50;16.47;;;5.20;99.90;;;;;;5033941;28;20223;-72
2021/01/23 01:51:55;;;;;;;27.10;16.60;;;5.20;99.90;;;;;;5033063;28;20207;-72
2021/01/23 01:54:23;;;;;;;27.93;17.23;;;5.20;99.90;;;;;;5024552;28;20252;-73
2021/01/23 01:56:49;;;;;;;28.53;17.27;;;5.10;99.90;;;;;;5030018;28;20213;-71
2021/01/23 01:59:16;;;;;;;30.50;18.30;;;5.10;99.90;;;;;;5032146;28;20235;-72
2021/01/23 02:01:42;;;;;;;31.23;17.83;;;5.00;99.90;;;;;;5030922;28;20270;-71
2021/01/23 02:04:20;;;;;;;26.77;18.00;;;5.00;99.90;;;;;;5022298;28;20290;-72
2021/01/23 02:07:12;;;;;;;30.57;17.67;;;5.00;99.90;;;;;;5033564;28;20232;-73
2021/01/23 02:10:02;;;;;;;30.33;18.30;;;4.90;99.90;;;;;;5033042;28;20301;-72
2021/01/23 02:12:37;;;;;;;28.40;17.30;;;4.90;99.90;;;;;;5031200;28;20321;-74
2021/01/23 02:15:11;;;;;;;26.80;17.17;;;4.90;99.90;;;;;;5031466;28;20732;-71
2021/01/23 02:17:43;;;;;;;25.73;17.37;;;4.80;99.90;;;;;;5028987;28;20253;-71
2021/01/23 02:20:35;;;;;;;29.57;17.73;;;4.80;99.90;;;;;;5031206;28;20320;-72
2021/01/23 02:23:12;;;;;;;28.23;17.97;;;4.70;99.90;;;;;;5021415;28;20294;-72
2021/01/23 02:25:59;;;;;;;28.17;17.70;;;4.70;99.90;;;;;;5031036;28;20234;-72
2021/01/23 02:28:49;;;;;;;26.97;17.13;;;4.70;99.90;;;;;;5019476;28;20227;-72
2021/01/23 02:31:18;;;;;;;26.60;17.77;;;4.70;99.90;;;;;;5019612;28;20203;-72
2021/01/23 02:33:48;;;;;;;30.10;17.50;;;4.70;99.90;;;;;;5029650;28;20253;-71
2021/01/23 02:36:17;;;;;;;26.50;17.20;;;4.70;99.90;;;;;;5031725;28;20676;-72
2021/01/23 02:38:45;;;;;;;27.43;17.80;;;4.70;99.90;;;;;;5032487;28;20210;-72
2021/01/23 02:41:12;;;;;;;30.20;18.03;;;4.70;99.90;;;;;;5028618;28;20282;-72
2021/01/23 02:43:42;;;;;;;29.23;17.13;;;4.70;99.90;;;;;;5024801;28;20306;-71
2021/01/23 02:46:10;;;;;;;31.07;16.70;;;4.70;99.90;;;;;;5027118;28;20679;-71
2021/01/23 02:48:38;;;;;;;24.87;16.50;;;4.70;99.90;;;;;;5025603;28;20772;-72
2021/01/23 02:51:09;;;;;;;28.47;16.93;;;4.60;99.90;;;;;;5030569;28;20218;-72
2021/01/23 02:53:38;;;;;;;27.67;16.90;;;4.60;99.90;;;;;;5032442;28;20653;-72
2021/01/23 02:56:08;;;;;;;27.73;16.57;;;4.70;99.90;;;;;;5029518;28;20206;-72
2021/01/23 02:58:36;;;;;;;24.63;15.70;;;4.60;99.90;;;;;;5030748;28;20207;-71
2021/01/23 03:01:04;;;;;;;26.70;16.47;;;4.70;99.90;;;;;;5027595;28;20206;-71
2021/01/23 03:03:32;;;;;;;27.53;16.80;;;4.70;99.90;;;;;;5031791;28;20207;-72
2021/01/23 03:06:03;;;;;;;28.83;16.97;;;4.70;99.90;;;;;;5022150;28;20218;-71
2021/01/23 03:08:30;;;;;;;24.60;16.50;;;4.70;99.90;;;;;;5030157;28;20305;-72
2021/01/23 03:10:56;;;;;;;28.13;16.20;;;4.70;99.90;;;;;;5032881;28;20685;-71
2021/01/23 03:13:22;;;;;;;27.40;17.03;;;4.70;99.90;;;;;;5031794;28;20202;-72
2021/01/23 03:15:49;;;;;;;23.83;15.37;;;4.70;99.90;;;;;;5029789;28;20214;-72
2021/01/23 03:18:15;;;;;;;26.80;15.40;;;4.70;99.90;;;;;;5033343;28;20211;-71
2021/01/23 03:20:42;;;;;;;24.97;14.87;;;4.70;99.90;;;;;;5031729;28;20221;-72
2021/01/23 03:23:10;;;;;;;22.93;15.33;;;4.70;99.90;;;;;;5031084;28;20218;-72
2021/01/23 03:25:36;;;;;;;24.80;15.97;;;4.70;99.90;;;;;;5028986;28;20207;-71
2021/01/23 03:28:03;;;;;;;24.67;15.47;;;4.80;99.90;;;;;;5028726;28;20369;-72
2021/01/23 03:30:30;;;;;;;24.40;14.73;;;4.80;99.90;;;;;;5029734;28;20210;-73
2021/01/23 03:32:57;;;;;;;24.23;16.40;;;4.80;99.90;;;;;;5033354;28;20564;-72
2021/01/23 03:35:24;;;;;;;25.53;15.30;;;4.80;99.90;;;;;;5028226;28;20218;-73
2021/01/23 03:37:51;;;;;;;24.73;15.00;;;4.80;99.90;;;;;;5028812;28;20268;-73
2021/01/23 03:40:19;;;;;;;24.80;15.27;;;4.80;99.90;;;;;;5025745;28;20203;-73
2021/01/23 03:42:45;;;;;;;25.23;15.20;;;4.80;99.90;;;;;;5025401;28;20204;-71
2021/01/23 03:45:12;;;;;;;22.17;15.23;;;4.80;99.90;;;;;;5032596;28;20209;-73
2021/01/23 03:47:39;;;;;;;23.97;15.27;;;4.80;99.90;;;;;;5028036;28;20211;-73
2021/01/23 03:50:08;;;;;;;25.63;15.20;;;4.80;99.90;;;;;;5033312;28;20202;-73
2021/01/23 03:52:35;;;;;;;23.30;15.20;;;4.80;99.90;;;;;;5030888;28;20214;-72
2021/01/23 03:55:02;;;;;;;24.57;15.57;;;4.70;99.90;;;;;;5024489;28;20215;-72
2021/01/23 03:57:29;;;;;;;20.43;13.80;;;4.70;99.90;;;;;;5031308;28;20210;-73
2021/01/23 03:59:56;;;;;;;26.40;14.97;;;4.70;99.90;;;;;;5017970;28;20242;-71
2021/01/23 04:02:23;;;;;;;23.57;15.03;;;4.60;99.90;;;;;;5029584;28;20579;-71
2021/01/23 04:04:49;;;;;;;23.47;14.47;;;4.60;99.90;;;;;;5024309;28;20637;-72
2021/01/23 04:07:15;;;;;;;26.00;14.50;;;4.60;99.90;;;;;;5022744;28;20644;-71
2021/01/23 04:09:42;;;;;;;22.50;14.80;;;4.50;99.90;;;;;;5029720;28;20261;-73
2021/01/23 04:12:08;;;;;;;20.80;14.53;;;4.40;99.90;;;;;;5030679;28;20290;-72
2021/01/23 04:14:36;;;;;;;23.80;15.03;;;4.40;99.90;;;;;;5029378;28;20256;-72
2021/01/23 04:17:02;;;;;;;23.23;15.87;;;4.40;99.90;;;;;;5030793;28;20297;-72
2021/01/23 04:19:28;;;;;;;25.40;15.40;;;4.40;99.90;;;;;;5030608;28;20294;-71
2021/01/23 04:21:55;;;;;;;20.27;14.57;;;4.40;99.90;;;;;;5036356;28;20686;-72
2021/01/23 04:24:21;;;;;;;23.73;14.67;;;4.30;99.90;;;;;;5031204;28;20203;-72
2021/01/23 04:26:49;;;;;;;24.60;15.17;;;4.30;99.90;;;;;;5032992;28;20578;-73
2021/01/23 04:29:15;;;;;;;23.40;15.77;;;4.30;99.90;;;;;;5036699;28;20224;-73
2021/01/23 04:31:42;;;;;;;23.67;15.20;;;4.30;99.90;;;;;;5036179;28;20543;-72
2021/01/23 04:34:09;;;;;;;23.90;16.07;;;4.30;99.90;;;;;;5035828;28;20233;-73
2021/01/23 04:36:35;;;;;;;25.20;15.40;;;4.30;99.90;;;;;;5034504;28;20234;-72
2021/01/23 04:39:02;;;;;;;25.90;15.83;;;4.40;99.90;;;;;;5031793;28;20773;-72
2021/01/23 04:41:29;;;;;;;23.67;15.57;;;4.40;99.90;;;;;;5032866;28;20253;-72
2021/01/23 04:43:56;;;;;;;23.60;15.80;;;4.40;99.90;;;;;;5029742;28;20285;-72
2021/01/23 04:46:23;;;;;;;23.83;15.67;;;4.40;99.90;;;;;;5031314;28;20214;-72
2021/01/23 04:48:51;;;;;;;23.90;15.13;;;4.40;99.90;;;;;;5030607;28;20690;-73
2021/01/23 04:51:17;;;;;;;26.37;17.10;;;4.40;99.90;;;;;;5035510;28;20202;-72
2021/01/23 04:53:46;;;;;;;26.30;15.80;;;4.50;99.90;;;;;;5033588;28;20298;-72
2021/01/23 04:56:13;;;;;;;28.70;16.77;;;4.40;99.90;;;;;;5029611;28;20206;-73
2021/01/23 04:58:39;;;;;;;26.13;16.60;;;4.50;99.90;;;;;;5027254;28;20260;-72
2021/01/23 05:01:05;;;;;;;29.37;17.13;;;4.50;99.90;;;;;;5035727;28;20199;-72
2021/01/23 05:03:54;;;;;;;25.47;15.90;;;4.50;99.90;;;;;;5030099;28;20293;-72
2021/01/23 05:06:20;;;;;;;26.67;16.47;;;4.50;99.90;;;;;;5028513;28;20199;-71
2021/01/23 05:08:46;;;;;;;26.40;15.90;;;4.50;99.90;;;;;;5032359;28;20230;-71
2021/01/23 05:11:13;;;;;;;27.53;17.07;;;4.50;99.90;;;;;;5033575;28;20547;-71
2021/01/23 05:13:39;;;;;;;24.73;16.33;;;4.50;99.90;;;;;;5029163;28;20243;-71
2021/01/23 05:16:24;;;;;;;29.40;17.03;;;4.50;99.90;;;;;;5034533;28;20705;-71
2021/01/23 05:18:56;;;;;;;24.50;16.13;;;4.50;99.90;;;;;;5027898;28;20264;-71
2021/01/23 05:21:23;;;;;;;23.03;15.53;;;4.50;99.90;;;;;;5032672;28;20194;-71
2021/01/23 05:24:02;;;;;;;25.23;16.27;;;4.60;99.90;;;;;;5025293;28;20305;-71
2021/01/23 05:26:29;;;;;;;29.03;15.53;;;4.60;99.90;;;;;;5030720;28;20202;-71
2021/01/23 05:29:12;;;;;;;25.60;15.47;;;4.60;99.90;;;;;;5029209;28;20229;-72
2021/01/23 05:31:40;;;;;;;23.23;14.77;;;4.60;99.90;;;;;;5026097;28;20688;-72
2021/01/23 05:34:29;;;;;;;24.63;14.70;;;4.70;99.90;;;;;;5026865;28;20636;-72
2021/01/23 05:36:57;;;;;;;23.63;14.87;;;4.70;99.90;;;;;;5025709;28;20264;-72
2021/01/23 05:39:46;;;;;;;23.97;15.13;;;4.70;99.90;;;;;;5022962;28;20282;-72
2021/01/23 05:42:12;;;;;;;21.80;13.73;;;4.70;99.90;;;;;;5030335;28;20206;-72
2021/01/23 05:44:38;;;;;;;25.00;14.37;;;4.80;99.90;;;;;;5030368;28;20214;-72
2021/01/23 05:47:26;;;;;;;22.90;14.93;;;4.80;99.90;;;;;;5029626;28;20206;-72
2021/01/23 05:49:54;;;;;;;20.80;14.60;;;4.80;99.90;;;;;;5025087;28;20225;-72
2021/01/23 05:52:21;;;;;;;24.07;14.63;;;4.80;99.90;;;;;;5035026;28;20206;-72
2021/01/23 05:54:48;;;;;;;22.70;15.23;;;4.70;99.90;;;;;;5031336;28;20571;-72
2021/01/23 05:57:15;;;;;;;25.40;14.87;;;4.70;99.90;;;;;;5031058;28;20230;-71
2021/01/23 05:59:42;;;;;;;22.97;15.63;;;4.70;99.90;;;;;;5034751;28;20793;-72
2021/01/23 06:02:10;;;;;;;22.70;15.00;;;4.70;99.90;;;;;;5028517;28;20213;-71
2021/01/23 06:04:40;;;;;;;26.73;15.60;;;4.60;99.90;;;;;;5031545;28;20214;-71
2021/01/23 06:07:07;;;;;;;24.57;14.77;;;4.60;99.90;;;;;;5033107;28;20266;-72
2021/01/23 06:09:35;;;;;;;25.87;15.07;;;4.60;99.90;;;;;;5027753;28;20283;-72
2021/01/23 06:12:02;;;;;;;26.07;15.70;;;4.60;99.90;;;;;;5025603;28;20234;-72
2021/01/23 06:14:39;;;;;;;24.13;15.83;;;4.60;99.90;;;;;;5028250;28;20364;-72
2021/01/23 06:17:06;;;;;;;24.50;14.73;;;4.60;99.90;;;;;;5028229;28;20214;-71
2021/01/23 06:19:40;;;;;;;28.93;16.23;;;4.60;99.90;;;;;;5031071;28;20548;-72
2021/01/23 06:22:07;;;;;;;22.40;13.97;;;4.60;99.90;;;;;;5029659;28;20298;-72
2021/01/23 06:24:53;;;;;;;21.63;14.37;;;4.60;99.90;;;;;;5028534;28;20289;-72
2021/01/23 06:27:20;;;;;;;23.63;15.40;;;4.70;99.90;;;;;;5033941;28;20202;-72
2021/01/23 06:29:47;;;;;;;27.77;16.43;;;4.70;99.90;;;;;;5021766;28;20640;-72
2021/01/23 06:32:30;;;;;;;24.23;14.27;;;4.60;99.90;;;;;;5029127;28;20333;-72
2021/01/23 06:34:58;;;;;;;25.23;15.17;;;4.50;99.90;;;;;;5029708;28;20638;-72
2021/01/23 06:37:29;;;;;;;26.20;16.20;;;4.50;99.90;;;;;;5030227;28;20219;-73
2021/01/23 06:40:12;;;;;;;31.80;15.70;;;4.50;99.90;;;;;;5025783;28;20191;-74
2021/01/23 06:42:40;;;;;;;25.73;16.13;;;4.50;99.90;;;;;;5031694;28;20210;-72
2021/01/23 06:45:25;;;;;;;26.50;17.33;;;4.50;99.90;;;;;;5024066;28;20286;-71
2021/01/23 06:47:54;;;;;;;24.73;15.70;;;4.50;99.90;;;;;;5029519;28;20230;-73
2021/01/23 06:50:28;;;;;;;23.43;14.83;;;4.50;99.90;;;;;;5027439;28;20269;-72
2021/01/23 06:52:56;;;;;;;24.50;16.03;;;4.50;99.90;;;;;;5026983;28;20677;-72
2021/01/23 06:55:49;;;;;;;26.43;16.30;;;4.60;99.90;;;;;;5028215;28;20219;-73
2021/01/23 06:58:17;;;;;;;27.97;17.10;;;4.50;99.90;;;;;;5026497;28;20211;-73
2021/01/23 07:00:44;;;;;;;25.70;16.67;;;4.50;99.90;;;;;;5034252;28;20537;-72
2021/01/23 07:03:12;;;;;;;25.47;15.60;;;4.60;99.90;;;;;;5033195;28;20232;-73
2021/01/23 07:05:53;;;;;;;23.17;16.17;;;4.60;99.90;;;;;;5022292;28;20659;-73
2021/01/23 07:08:29;;;;;;;24.23;16.17;;;4.60;99.90;;;;;;5021348;28;20313;-71
2021/01/23 07:11:13;;;;;;;27.83;16.37;;;4.70;99.90;;;;;;5033264;28;20221;-72
2021/01/23 07:13:56;;;;;;;23.83;15.43;;;4.70;99.90;;;;;;5032023;28;20229;-73
2021/01/23 07:16:22;;;;;;;27.33;15.57;;;4.70;99.90;;;;;;5032292;28;20582;-73
2021/01/23 07:18:52;;;;;;;27.07;16.03;;;4.70;99.90;;;;;;5021493;28;20622;-70
2021/01/23 07:21:20;;;;;;;25.00;16.43;;;5.50;99.90;;;;;;5034074;28;20218;-71
2021/01/23 07:23:48;;;;;;;26.70;16.27;;;4.80;99.90;;;;;;5034564;28;20623;-71
2021/01/23 07:26:16;;;;;;;25.53;15.73;;;4.80;99.90;;;;;;5029826;28;20246;-75
2021/01/23 07:28:48;;;;;;;27.20;16.47;;;4.80;99.90;;;;;;5029430;28;20249;-74
2021/01/23 07:31:22;;;;;;;23.60;15.17;;;4.80;99.90;;;;;;5033889;28;20302;-73
2021/01/23 07:33:48;;;;;;;23.90;15.37;;;4.90;99.90;;;;;;5029540;28;20281;-73
2021/01/23 07:36:43;;;;;;;25.03;15.27;;;4.90;99.90;;;;;;5033360;28;20214;-74
2021/01/23 07:39:12;;;;;;;25.70;15.23;;;5.00;99.90;;;;;;5002436;28;20210;-74
2021/01/23 07:41:40;;;;;;;24.97;16.60;;;5.10;99.90;;;;;;5031265;28;20691;-73
2021/01/23 07:44:10;;;;;;;25.07;15.20;;;5.10;99.90;;;;;;5022730;28;20639;-75
2021/01/23 07:46:40;;;;;;;21.80;15.53;;;5.20;99.90;;;;;;5032033;28;20209;-75
2021/01/23 07:49:08;;;;;;;23.33;14.93;;;5.30;99.90;;;;;;5028789;28;20262;-74
2021/01/23 07:51:34;;;;;;;22.50;14.63;;;5.40;99.90;;;;;;5020688;28;20203;-74
2021/01/23 07:54:05;;;;;;;24.93;15.07;;;5.50;99.90;;;;;;5025536;28;21655;-74
2021/01/23 07:56:35;;;;;;;22.73;14.90;;;5.50;99.90;;;;;;5033225;28;20306;-74
2021/01/23 07:59:02;;;;;;;23.17;15.33;;;5.50;99.90;;;;;;5026412;28;20238;-75
2021/01/23 08:01:29;;;;;;;20.93;15.03;;;5.60;99.90;;;;;;5031406;28;20751;-76
2021/01/23 08:03:55;;;;;;;22.63;14.83;;;5.70;99.90;;;;;;5033039;28;20206;-75
2021/01/23 08:06:23;;;;;;;23.33;16.27;;;5.70;99.90;;;;;;5019187;28;20211;-75
2021/01/23 08:08:49;;;;;;;22.27;16.00;;;5.70;99.90;;;;;;5037244;28;20310;-75
2021/01/23 08:11:36;;;;;;;21.17;14.27;;;5.70;99.90;;;;;;5028570;28;20655;-74
2021/01/23 08:14:13;;;;;;;24.27;16.00;;;5.80;99.90;;;;;;5029921;28;20234;-75
2021/01/23 08:16:53;;;;;;;22.63;14.70;;;5.80;99.90;;;;;;5036576;28;20238;-74
2021/01/23 08:19:19;;;;;;;25.70;15.87;;;5.80;99.90;;;;;;5028611;28;20297;-73
2021/01/23 08:22:05;;;;;;;25.07;15.30;;;5.80;99.90;;;;;;5038290;28;20242;-74
2021/01/23 08:24:31;;;;;;;19.47;14.63;;;5.80;99.90;;;;;;5031390;28;20290;-75
2021/01/23 08:27:19;;;;;;;24.83;15.00;;;5.90;99.90;;;;;;5038062;28;20248;-74
2021/01/23 08:29:47;;;;;;;24.33;15.57;;;5.90;99.90;;;;;;5028875;28;20231;-75
2021/01/23 08:32:15;;;;;;;25.47;15.43;;;5.90;99.90;;;;;;5037463;28;20252;-75
2021/01/23 08:34:43;;;;;;;23.87;15.43;;;5.90;99.90;;;;;;5028038;28;20214;-75
2021/01/23 08:37:09;;;;;;;22.90;15.37;;;5.90;99.90;;;;;;5037899;28;20203;-77
2021/01/23 08:39:47;;;;;;;24.43;15.00;;;6.00;99.90;;;;;;5036651;28;20585;-72
2021/01/23 08:42:24;;;;;;;23.63;14.63;;;6.00;99.90;;;;;;5038339;28;20238;-75
2021/01/23 08:44:51;;;;;;;20.60;15.13;;;6.00;99.90;;;;;;5037667;28;20210;-77
2021/01/23 08:47:19;;;;;;;23.87;16.40;;;6.00;99.90;;;;;;5036318;28;20204;-75
2021/01/23 08:49:48;;;;;;;23.70;16.13;;;6.00;99.90;;;;;;5030878;28;20311;-75
2021/01/23 08:52:14;;;;;;;25.00;15.03;;;6.00;99.90;;;;;;5022679;28;20214;-73
2021/01/23 08:54:41;;;;;;;24.70;15.00;;;6.00;99.90;;;;;;5036719;28;20211;-73
2021/01/23 08:57:08;;;;;;;22.70;15.17;;;6.00;99.90;;;;;;5038585;28;20217;-74
2021/01/23 08:59:36;;;;;;;21.13;14.80;;;6.10;99.90;;;;;;5037105;28;20321;-74
2021/01/23 09:02:02;;;;;;;25.63;15.27;;;6.10;99.90;;;;;;5031704;28;20211;-74
2021/01/23 09:04:29;;;;;;;20.77;15.50;;;6.10;99.90;;;;;;5032570;28;20203;-74
2021/01/23 09:06:55;;;;;;;22.80;14.97;;;6.20;99.90;;;;;;5032937;28;20283;-74
2021/01/23 09:09:23;;;;;;;21.70;14.40;;;6.10;99.90;;;;;;5029627;28;20707;-73
2021/01/23 09:11:53;;;;;;;18.23;14.17;;;6.10;99.90;;;;;;5031781;28;20246;-72
2021/01/23 09:14:20;;;;;;;23.00;15.27;;;6.20;99.90;;;;;;5037373;28;20226;-73
2021/01/23 09:16:48;;;;;;;25.30;14.80;;;6.20;99.90;;;;;;5038273;28;20225;-74
2021/01/23 09:19:14;;;;;;;22.27;14.80;;;6.20;99.90;;;;;;5031543;28;20210;-76
2021/01/23 09:21:40;;;;;;;21.80;14.40;;;6.30;99.90;;;;;;5036300;28;20210;-74
2021/01/23 09:24:12;;;;;;;22.87;14.10;;;6.20;99.90;;;;;;5035979;28;20234;-76
2021/01/23 09:26:38;;;;;;;20.43;14.40;;;6.20;99.90;;;;;;5023490;28;20203;-74
2021/01/23 09:29:05;;;;;;;22.77;14.47;;;6.30;99.90;;;;;;5026505;28;20333;-74
2021/01/23 09:31:31;;;;;;;21.40;14.33;;;6.30;99.90;;;;;;5033729;28;20562;-74
2021/01/23 09:34:07;;;;;;;21.97;14.90;;;6.30;99.90;;;;;;5037348;28;20534;-76
2021/01/23 09:36:34;;;;;;;19.53;14.30;;;6.40;99.90;;;;;;5037841;28;20714;-75
2021/01/23 09:39:00;;;;;;;19.20;14.07;;;6.50;99.90;;;;;;5032532;28;20230;-74
2021/01/23 09:41:27;;;;;;;21.67;14.20;;;6.50;99.90;;;;;;5036962;28;20568;-72
2021/01/23 09:43:53;;;;;;;19.93;14.33;;;6.60;99.90;;;;;;5035150;28;20212;-72
2021/01/23 09:46:21;;;;;;;19.50;14.53;;;6.60;99.90;;;;;;5033496;28;20292;-73
2021/01/23 09:48:48;;;;;;;20.43;14.30;;;6.60;99.90;;;;;;5025692;28;20673;-77
2021/01/23 09:51:15;;;;;;;22.33;14.93;;;6.60;99.90;;;;;;5033159;28;20644;-75
2021/01/23 09:53:41;;;;;;;19.07;13.30;;;6.60;99.90;;;;;;5028407;28;20304;-75
2021/01/23 09:56:08;;;;;;;19.40;13.87;;;6.60;99.90;;;;;;5035090;28;20218;-74
2021/01/23 09:58:34;;;;;;;21.83;13.67;;;6.60;99.90;;;;;;5026189;28;20298;-74
2021/01/23 10:01:01;;;;;;;22.63;14.33;;;6.60;99.90;;;;;;5034768;28;20295;-72
2021/01/23 10:03:27;;;;;;;19.17;13.90;;;6.50;99.90;;;;;;5029825;28;20246;-72
2021/01/23 10:05:54;;;;;;;18.63;12.90;;;6.50;99.90;;;;;;5034879;28;20213;-74
2021/01/23 10:08:21;;;;;;;16.83;12.97;;;6.60;99.90;;;;;;5034776;28;20301;-73
2021/01/23 10:10:48;;;;;;;15.93;12.40;;;6.50;99.90;;;;;;5036476;28;20249;-75
2021/01/23 10:13:17;;;;;;;19.03;13.00;;;6.60;99.90;;;;;;5038324;28;20269;-75
2021/01/23 10:15:43;;;;;;;20.77;12.73;;;6.60;99.90;;;;;;5035124;28;20214;-74
2021/01/23 10:18:10;;;;;;;18.30;13.03;;;6.60;99.90;;;;;;5025535;28;20603;-74
2021/01/23 10:20:37;;;;;;;18.27;12.57;;;6.60;99.90;;;;;;5033864;28;20708;-73
2021/01/23 10:23:04;;;;;;;20.17;12.40;;;6.70;99.90;;;;;;5030817;28;20219;-74
2021/01/23 10:25:31;;;;;;;16.40;13.30;;;6.80;99.90;;;;;;5034808;28;20210;-74
2021/01/23 10:27:58;;;;;;;15.03;11.57;;;6.80;99.90;;;;;;5033082;28;20298;-73
2021/01/23 10:30:25;;;;;;;15.23;11.83;;;6.80;99.90;;;;;;5034398;28;20317;-75
2021/01/23 10:32:51;;;;;;;18.20;13.33;;;6.80;99.90;;;;;;5024913;28;20234;-73
2021/01/23 10:35:18;;;;;;;18.97;12.80;;;6.80;99.90;;;;;;5031073;28;20648;-72
2021/01/23 10:37:45;;;;;;;16.23;13.27;;;6.80;99.90;;;;;;5028310;28;20664;-72
2021/01/23 10:40:12;;;;;;;18.27;12.67;;;6.90;99.90;;;;;;5027935;28;20211;-73
2021/01/23 10:42:40;;;;;;;18.13;12.60;;;6.90;99.90;;;;;;5022664;28;20563;-74
2021/01/23 10:45:08;;;;;;;14.83;11.50;;;6.90;99.90;;;;;;5026923;28;20628;-74
2021/01/23 10:47:35;;;;;;;17.23;12.80;;;6.90;99.90;;;;;;5034685;28;20284;-74
2021/01/23 10:50:02;;;;;;;20.27;12.87;;;6.90;99.90;;;;;;5030455;28;20235;-73
2021/01/23 10:52:29;;;;;;;16.47;12.37;;;7.00;99.90;;;;;;5034018;28;20274;-73
2021/01/23 10:54:55;;;;;;;20.33;12.57;;;7.00;99.90;;;;;;5030271;28;20202;-73
2021/01/23 10:57:22;;;;;;;16.27;11.70;;;7.00;99.90;;;;;;5024884;28;20231;-72
2021/01/23 10:59:49;;;;;;;17.43;12.33;;;7.00;99.90;;;;;;5015486;28;20779;-72
2021/01/23 11:02:15;;;;;;;19.23;12.70;;;7.00;99.90;;;;;;5025611;28;20207;-72
2021/01/23 11:04:42;;;;;;;19.77;11.87;;;7.00;99.90;;;;;;5017128;28;20210;-72
2021/01/23 11:07:08;;;;;;;15.77;10.93;;;7.10;99.90;;;;;;5031338;28;20573;-74
2021/01/23 11:09:35;;;;;;;18.20;11.83;;;7.10;99.90;;;;;;5026516;28;20668;-73
2021/01/23 11:12:01;;;;;;;15.37;10.90;;;7.10;99.90;;;;;;5029116;28;20226;-72
2021/01/23 11:14:28;;;;;;;17.37;11.63;;;7.10;99.90;;;;;;5030849;28;20233;-74
2021/01/23 11:16:55;;;;;;;15.17;11.10;;;7.10;99.90;;;;;;5032524;28;20207;-73
2021/01/23 11:19:21;;;;;;;15.57;11.77;;;7.20;99.90;;;;;;5028274;28;20203;-73
2021/01/23 11:21:48;;;;;;;13.27;10.47;;;7.20;99.90;;;;;;5031352;28;20293;-72
2021/01/23 11:24:14;;;;;;;13.87;11.30;;;7.20;99.90;;;;;;5026733;28;20614;-73
2021/01/23 11:26:41;;;;;;;16.03;11.60;;;7.20;99.90;;;;;;5026544;28;20264;-72
2021/01/23 11:29:07;;;;;;;15.37;11.17;;;7.30;99.90;;;;;;5029687;28;20353;-73
2021/01/23 11:31:33;;;;;;;14.13;10.50;;;7.30;99.90;;;;;;5028552;28;20345;-72
2021/01/23 11:34:00;;;;;;;13.23;10.83;;;7.30;99.90;;;;;;5027702;28;20294;-73
2021/01/23 11:36:27;;;;;;;15.57;11.10;;;7.20;99.90;;;;;;5031490;28;20206;-72
2021/01/23 11:38:54;;;;;;;14.07;10.60;;;7.20;99.90;;;;;;5023392;28;20209;-72
2021/01/23 11:41:21;;;;;;;17.30;11.93;;;7.30;99.90;;;;;;5033290;28;20286;-72
2021/01/23 11:43:47;;;;;;;16.43;10.80;;;7.20;99.90;;;;;;5032657;28;20234;-73
2021/01/23 11:46:13;;;;;;;15.30;10.70;;;7.20;99.90;;;;;;5019621;28;20225;-74
2021/01/23 11:48:40;;;;;;;15.50;11.13;;;7.10;99.90;;;;;;5034329;28;20301;-73
2021/01/23 11:51:07;;;;;;;15.87;10.83;;;7.00;99.90;;;;;;5030591;28;20237;-74
2021/01/23 11:53:34;;;;;;;17.60;11.90;;;7.10;99.90;;;;;;5034723;28;20670;-73
2021/01/23 11:56:00;;;;;;;17.93;11.30;;;7.00;99.90;;;;;;5031061;28;20207;-72
2021/01/23 11:58:27;;;;;;;17.20;12.30;;;7.10;99.90;;;;;;5031867;28;20226;-73
2021/01/23 12:00:53;;;;;;;15.93;10.93;;;7.10;99.90;;;;;;5038048;28;20328;-75
2021/01/23 12:03:20;;;;;;;15.47;11.37;;;7.10;99.90;;;;;;5023176;28;20215;-74
2021/01/23 12:05:46;;;;;;;17.47;11.23;;;7.10;99.90;;;;;;5020625;28;20210;-74
2021/01/23 12:08:14;;;;;;;15.50;11.73;;;7.00;99.90;;;;;;5039663;28;21065;-75
2021/01/23 12:10:40;;;;;;;15.70;11.30;;;7.00;99.90;;;;;;5023182;28;20258;-76
2021/01/23 12:13:07;;;;;;;15.53;11.23;;;7.00;99.90;;;;;;5024503;28;20259;-77
2021/01/23 12:15:33;;;;;;;18.07;11.47;;;7.00;99.90;;;;;;5024582;28;20200;-76
2021/01/23 12:17:59;;;;;;;16.20;10.83;;;6.90;99.90;;;;;;5019319;28;20619;-76
2021/01/23 12:20:26;;;;;;;18.03;10.70;;;7.00;99.90;;;;;;5026999;28;20211;-79
2021/01/23 12:22:53;;;;;;;20.93;11.87;;;6.90;99.90;;;;;;5037662;28;20656;-77
2021/01/23 12:25:20;;;;;;;14.23;10.37;;;6.90;99.90;;;;;;5035224;28;20199;-77
2021/01/23 12:27:47;;;;;;;14.80;11.33;;;6.90;99.90;;;;;;5039415;28;20211;-77
2021/01/23 12:30:15;;;;;;;17.03;10.87;;;6.90;99.90;;;;;;5027583;28;20219;-77
2021/01/23 12:32:43;;;;;;;16.00;11.27;;;6.90;99.90;;;;;;5023318;28;20219;-77
2021/01/23 12:35:11;;;;;;;21.00;11.47;;;6.90;99.90;;;;;;5025006;28;20285;-78
2021/01/23 12:37:38;;;;;;;15.33;11.13;;;6.90;99.90;;;;;;5030530;28;20416;-76
2021/01/23 12:40:08;;;;;;;16.63;11.17;;;6.90;99.90;;;;;;5028236;28;20207;-78
2021/01/23 12:42:35;;;;;;;15.03;10.83;;;6.90;99.90;;;;;;5040340;28;20634;-77
2021/01/23 12:45:01;;;;;;;17.97;12.00;;;6.90;99.90;;;;;;5029023;28;20297;-73